createdAt,value
2023-01-07T00:02:25.338Z,19.40
2023-01-07T00:09:50.639Z,19.40
2023-01-07T00:17:16.880Z,19.20
2023-01-07T00:19:44.983Z,19.60
2023-01-07T00:34:39.069Z,19.10
2023-01-07T00:50:14.356Z,19.30
2023-01-07T00:55:11.740Z,19.00
2023-01-07T01:00:09.669Z,19.30
2023-01-07T01:02:38.208Z,19.20
2023-01-07T01:05:07.295Z,19.40
2023-01-07T01:07:37.733Z,19.00
2023-01-07T01:10:08.943Z,19.00
2023-01-07T01:12:37.661Z,19.30
2023-01-07T01:15:08.035Z,19.00
2023-01-07T01:20:05.844Z,19.00
2023-01-07T01:22:34.213Z,19.20
2023-01-07T01:25:03.756Z,19.10
2023-01-07T01:27:32.563Z,19.20
2023-01-07T01:42:26.372Z,19.20
2023-01-07T01:44:56.556Z,19.10
2023-01-07T01:47:32.999Z,19.00
2023-01-07T01:50:06.093Z,18.90
2023-01-07T01:52:40.917Z,19.10
2023-01-07T01:55:11.604Z,19.30
2023-01-07T01:57:41.975Z,19.00
2023-01-07T02:00:11.476Z,19.30
2023-01-07T02:02:43.510Z,19.50
2023-01-07T02:05:12.136Z,19.10
2023-01-07T02:10:14.820Z,19.00
2023-01-07T02:12:58.403Z,19.00
2023-01-07T02:15:37.596Z,18.90
2023-01-07T02:18:24.910Z,19.00
2023-01-07T02:21:04.718Z,18.90
2023-01-07T02:24:08.524Z,19.10
2023-01-07T02:27:06.970Z,18.80
2023-01-07T02:30:09.288Z,19.10
2023-01-07T02:32:45.710Z,18.90
2023-01-07T02:35:26.854Z,19.00
2023-01-07T02:38:02.844Z,19.10
2023-01-07T02:40:39.560Z,19.10
2023-01-07T02:43:17.393Z,18.90
2023-01-07T02:45:51.297Z,19.10
2023-01-07T02:48:23.938Z,19.00
2023-01-07T02:53:22.180Z,19.00
2023-01-07T02:56:02.826Z,19.00
2023-01-07T02:59:03.953Z,18.90
2023-01-07T03:02:01.682Z,19.20
2023-01-07T03:04:50.185Z,18.90
2023-01-07T03:07:30.182Z,18.90
2023-01-07T03:10:01.692Z,19.00
2023-01-07T03:12:35.518Z,18.90
2023-01-07T03:15:10.329Z,18.80
2023-01-07T03:17:43.569Z,18.70
2023-01-07T03:20:14.930Z,18.60
2023-01-07T03:22:45.974Z,18.90
2023-01-07T03:25:15.030Z,18.80
2023-01-07T03:27:45.397Z,19.10
2023-01-07T03:30:16.697Z,18.80
2023-01-07T03:32:50.106Z,19.20
2023-01-07T03:35:21.686Z,18.80
2023-01-07T03:37:51.570Z,19.00
2023-01-07T03:40:20.892Z,19.00
2023-01-07T03:42:49.210Z,18.60
2023-01-07T03:45:19.892Z,18.50
2023-01-07T03:47:50.449Z,18.70
2023-01-07T03:50:21.023Z,18.90
2023-01-07T04:00:17.160Z,18.90
2023-01-07T04:07:44.049Z,18.90
2023-01-07T04:15:10.023Z,18.80
2023-01-07T04:20:08.059Z,19.00
2023-01-07T04:22:36.233Z,18.50
2023-01-07T04:25:06.244Z,18.70
2023-01-07T04:27:34.315Z,18.80
2023-01-07T04:42:25.852Z,18.50
2023-01-07T04:59:45.993Z,18.90
2023-01-07T05:17:06.345Z,19.20
2023-01-07T05:22:04.985Z,19.20
2023-01-07T05:34:28.044Z,18.90
2023-01-07T05:51:47.961Z,19.30
2023-01-07T06:06:39.715Z,19.20
2023-01-07T06:09:09.290Z,19.00
2023-01-07T06:26:29.210Z,19.40
2023-01-07T06:43:49.471Z,19.50
2023-01-07T07:01:10.122Z,19.40
2023-01-07T07:16:02.856Z,19.60
2023-01-07T07:18:32.636Z,19.50
2023-01-07T07:21:00.759Z,19.20
2023-01-07T07:33:23.426Z,19.90
2023-01-07T07:35:54.511Z,19.60
2023-01-07T07:40:51.730Z,19.60
2023-01-07T07:53:15.366Z,19.80
2023-01-07T08:00:40.517Z,19.80
2023-01-07T08:05:37.435Z,20.10
2023-01-07T08:08:06.051Z,19.70
2023-01-07T08:10:35.537Z,19.50
2023-01-07T08:15:32.135Z,20.00
2023-01-07T08:18:01.736Z,20.10
2023-01-07T08:20:30.073Z,19.80
2023-01-07T08:23:01.088Z,19.80
2023-01-07T08:28:00.251Z,19.60
2023-01-07T08:30:29.339Z,19.80
2023-01-07T08:32:58.308Z,19.80
2023-01-07T08:35:27.630Z,20.40
2023-01-07T08:38:02.461Z,19.50
2023-01-07T08:40:30.661Z,19.90
2023-01-07T08:43:04.581Z,20.00
2023-01-07T08:45:33.464Z,20.00
2023-01-07T08:50:31.827Z,20.10
2023-01-07T08:53:00.085Z,19.60
2023-01-07T09:00:26.670Z,20.30
2023-01-07T09:02:54.803Z,20.00
2023-01-07T09:05:24.579Z,19.60
2023-01-07T09:07:54.081Z,19.80
2023-01-07T09:10:23.552Z,20.10
2023-01-07T09:17:49.854Z,20.10
2023-01-07T09:20:19.242Z,20.30
2023-01-07T09:22:47.433Z,20.30
2023-01-07T09:27:45.833Z,20.20
2023-01-07T09:30:14.082Z,20.30
2023-01-07T09:32:43.615Z,20.40
2023-01-07T09:35:13.645Z,20.30
2023-01-07T09:37:42.743Z,20.10
2023-01-07T09:40:30.852Z,21.10
2023-01-07T09:43:04.995Z,20.90
2023-01-07T09:45:35.743Z,20.40
2023-01-07T09:48:11.029Z,20.70
2023-01-07T09:50:51.862Z,20.80
2023-01-07T09:53:23.961Z,21.00
2023-01-07T09:56:10.666Z,20.90
2023-01-07T09:58:42.830Z,20.40
2023-01-07T10:01:24.178Z,21.00
2023-01-07T10:04:01.122Z,21.10
2023-01-07T10:06:43.857Z,21.00
2023-01-07T10:09:23.045Z,20.70
2023-01-07T10:12:03.152Z,20.50
2023-01-07T10:14:54.958Z,20.80
2023-01-07T10:17:30.864Z,20.50
2023-01-07T10:20:04.399Z,20.60
2023-01-07T10:22:38.174Z,21.20
2023-01-07T10:25:16.556Z,21.00
2023-01-07T10:27:46.751Z,20.60
2023-01-07T10:30:19.346Z,20.90
2023-01-07T10:32:49.392Z,20.90
2023-01-07T10:35:21.418Z,21.60
2023-01-07T10:37:51.472Z,21.50
2023-01-07T10:40:34.804Z,21.50
2023-01-07T10:46:19.705Z,21.50
2023-01-07T10:49:10.462Z,21.30
2023-01-07T10:51:52.154Z,21.40
2023-01-07T10:54:42.398Z,21.50
2023-01-07T10:57:16.473Z,21.80
2023-01-07T10:59:50.286Z,21.50
2023-01-07T11:02:20.608Z,21.50
2023-01-07T11:04:48.901Z,21.50
2023-01-07T11:07:26.283Z,21.40
2023-01-07T11:09:57.357Z,21.40
2023-01-07T11:12:39.152Z,21.60
2023-01-07T11:15:15.160Z,21.20
2023-01-07T11:17:47.530Z,21.00
2023-01-07T11:20:35.679Z,21.60
2023-01-07T11:25:49.020Z,21.70
2023-01-07T11:28:20.653Z,22.10
2023-01-07T11:30:58.817Z,22.10
2023-01-07T11:34:02.035Z,21.80
2023-01-07T11:36:20.387Z,21.40
2023-01-07T11:38:48.707Z,22.00
2023-01-07T11:41:25.082Z,21.90
2023-01-07T11:43:56.104Z,22.70
2023-01-07T11:46:26.885Z,22.60
2023-01-07T11:48:58.211Z,22.30
2023-01-07T11:51:26.581Z,21.70
2023-01-07T11:53:57.938Z,22.60
2023-01-07T11:56:31.370Z,22.20
2023-01-07T11:59:26.787Z,22.10
2023-01-07T12:01:56.529Z,22.00
2023-01-07T12:04:27.062Z,22.00
2023-01-07T12:06:57.875Z,21.70
2023-01-07T12:09:36.273Z,22.20
2023-01-07T12:12:34.670Z,21.30
2023-01-07T12:15:06.035Z,21.60
2023-01-07T12:17:36.290Z,21.40
2023-01-07T12:20:40.918Z,21.50
2023-01-07T12:23:20.218Z,21.80
2023-01-07T12:26:02.041Z,22.80
2023-01-07T12:28:46.348Z,23.60
2023-01-07T12:31:27.579Z,22.80
2023-01-07T12:36:40.923Z,22.20
2023-01-07T12:39:17.166Z,23.60
2023-01-07T12:41:51.016Z,23.50
2023-01-07T12:44:22.959Z,23.40
2023-01-07T12:47:32.010Z,23.60
2023-01-07T12:49:56.664Z,23.20
2023-01-07T12:52:40.810Z,23.10
2023-01-07T12:55:17.798Z,22.20
2023-01-07T12:57:53.525Z,23.20
2023-01-07T13:00:26.565Z,23.30
2023-01-07T13:03:01.442Z,23.60
2023-01-07T13:05:37.566Z,23.80
2023-01-07T13:08:12.304Z,25.70
2023-01-07T13:10:42.953Z,25.30
2023-01-07T13:13:17.536Z,24.30
2023-01-07T13:15:49.211Z,24.40
2023-01-07T13:18:20.455Z,23.80
2023-01-07T13:21:06.567Z,23.90
2023-01-07T13:23:54.123Z,23.30
2023-01-07T13:26:32.897Z,22.90
2023-01-07T13:29:22.783Z,22.90
2023-01-07T13:32:00.541Z,23.10
2023-01-07T13:34:38.208Z,23.10
2023-01-07T13:37:19.707Z,23.20
2023-01-07T13:40:07.754Z,23.00
2023-01-07T13:42:46.232Z,23.00
2023-01-07T13:45:18.473Z,22.90
2023-01-07T13:47:50.927Z,22.80
2023-01-07T13:50:34.412Z,22.80
2023-01-07T13:53:05.062Z,22.70
2023-01-07T13:55:42.477Z,23.00
2023-01-07T13:58:35.803Z,22.60
2023-01-07T14:01:06.320Z,23.00
2023-01-07T14:03:43.738Z,22.70
2023-01-07T14:06:49.317Z,22.70
2023-01-07T14:09:41.939Z,22.20
2023-01-07T14:12:43.791Z,22.40
2023-01-07T14:15:43.603Z,22.50
2023-01-07T14:18:33.564Z,22.40
2023-01-07T14:21:08.384Z,21.60
2023-01-07T14:23:43.376Z,21.80
2023-01-07T14:26:20.962Z,21.50
2023-01-07T14:34:19.993Z,21.80
2023-01-07T14:37:24.523Z,21.80
2023-01-07T14:39:54.002Z,22.00
2023-01-07T14:42:47.694Z,21.70
2023-01-07T14:45:54.365Z,22.00
2023-01-07T14:48:31.748Z,21.70
2023-01-07T14:51:27.906Z,22.10
2023-01-07T14:54:17.713Z,21.80
2023-01-07T14:56:59.043Z,21.70
2023-01-07T15:00:07.830Z,21.60
2023-01-07T15:03:02.510Z,22.10
2023-01-07T15:06:12.533Z,22.10
2023-01-07T15:09:03.190Z,21.60
2023-01-07T15:11:50.041Z,21.60
2023-01-07T15:14:45.141Z,21.90
2023-01-07T15:17:15.904Z,21.70
2023-01-07T15:19:46.054Z,21.90
2023-01-07T15:22:38.907Z,21.70
2023-01-07T15:25:17.482Z,21.30
2023-01-07T15:27:55.184Z,21.30
2023-01-07T15:30:37.265Z,21.40
2023-01-07T15:33:19.777Z,21.40
2023-01-07T15:35:48.578Z,21.50
2023-01-07T15:38:28.850Z,21.60
2023-01-07T15:40:58.984Z,21.00
2023-01-07T15:43:30.074Z,21.50
2023-01-07T15:46:05.954Z,21.50
2023-01-07T15:48:34.294Z,21.50
2023-01-07T15:53:32.049Z,21.10
2023-01-07T15:56:03.197Z,21.20
2023-01-07T15:58:40.567Z,21.00
2023-01-07T16:01:17.392Z,21.40
2023-01-07T16:03:46.979Z,21.00
2023-01-07T16:06:28.327Z,20.90
2023-01-07T16:11:26.742Z,21.20
2023-01-07T16:13:58.768Z,20.80
2023-01-07T16:18:58.072Z,21.00
2023-01-07T16:21:28.551Z,21.10
2023-01-07T16:23:56.813Z,20.90
2023-01-07T16:26:33.953Z,20.40
2023-01-07T16:29:09.369Z,20.40
2023-01-07T16:31:39.424Z,20.50
2023-01-07T16:34:35.087Z,21.00
2023-01-07T16:37:04.768Z,20.90
2023-01-07T16:39:35.213Z,21.10
2023-01-07T16:42:17.529Z,20.40
2023-01-07T16:45:03.456Z,20.70
2023-01-07T16:47:35.207Z,20.50
2023-01-07T16:50:31.744Z,20.80
2023-01-07T16:55:51.188Z,20.90
2023-01-07T16:58:29.050Z,20.60
2023-01-07T17:01:00.935Z,20.40
2023-01-07T17:03:32.020Z,20.80
2023-01-07T17:06:04.913Z,20.30
2023-01-07T17:08:33.870Z,20.50
2023-01-07T17:11:06.028Z,20.20
2023-01-07T17:13:37.073Z,20.60
2023-01-07T17:18:54.042Z,20.20
2023-01-07T17:21:49.243Z,20.40
2023-01-07T17:24:46.694Z,20.10
2023-01-07T17:27:24.543Z,19.90
2023-01-07T17:32:22.725Z,20.00
2023-01-07T17:34:52.391Z,20.20
2023-01-07T17:37:20.517Z,20.60
2023-01-07T17:42:42.102Z,20.20
2023-01-07T17:45:16.902Z,20.10
2023-01-07T17:47:45.395Z,20.30
2023-01-07T17:50:16.759Z,20.30
2023-01-07T17:52:47.067Z,20.50
2023-01-07T17:55:17.232Z,20.40
2023-01-07T17:57:45.513Z,20.50
2023-01-07T18:00:19.727Z,20.10
2023-01-07T18:07:50.097Z,20.30
2023-01-07T18:10:20.203Z,20.90
2023-01-07T18:12:47.613Z,19.30
2023-01-07T18:15:19.595Z,20.20
2023-01-07T18:20:18.828Z,20.10
2023-01-07T18:25:19.005Z,20.10
2023-01-07T18:30:18.665Z,20.40
2023-01-07T18:35:19.621Z,20.20
2023-01-07T18:37:50.126Z,20.60
2023-01-07T18:52:44.372Z,20.30
2023-01-07T18:55:12.846Z,20.80
2023-01-07T19:00:10.673Z,20.10
2023-01-07T19:02:38.798Z,20.00
2023-01-07T19:05:07.803Z,20.60
2023-01-07T19:07:36.258Z,19.90
2023-01-07T19:10:06.611Z,19.90
2023-01-07T19:15:03.654Z,20.10
2023-01-07T19:17:31.792Z,20.10
2023-01-07T19:19:59.867Z,19.60
2023-01-07T19:24:57.641Z,20.60
2023-01-07T19:27:27.135Z,20.30
2023-01-07T19:29:55.219Z,20.30
2023-01-07T19:34:53.227Z,20.80
2023-01-07T19:37:22.066Z,20.90
2023-01-07T19:39:50.244Z,21.00
2023-01-07T19:42:18.376Z,21.10
2023-01-07T19:44:47.846Z,20.20
2023-01-07T19:47:17.223Z,21.60
2023-01-07T19:49:46.314Z,21.30
2023-01-07T19:54:42.915Z,20.40
2023-01-07T19:57:15.858Z,20.50
2023-01-07T20:02:17.918Z,19.90
2023-01-07T20:04:46.075Z,19.80
2023-01-07T20:07:15.716Z,19.80
2023-01-07T20:12:14.080Z,20.00
2023-01-07T20:14:42.704Z,20.60
2023-01-07T20:17:11.691Z,20.30
2023-01-07T20:19:41.152Z,20.00
2023-01-07T20:27:10.238Z,20.70
2023-01-07T20:29:40.473Z,20.40
2023-01-07T20:37:08.511Z,20.50
2023-01-07T20:42:06.164Z,20.60
2023-01-07T20:44:34.645Z,20.90
2023-01-07T20:47:05.527Z,20.60
2023-01-07T20:49:33.839Z,21.70
2023-01-07T20:54:31.992Z,20.90
2023-01-07T20:57:01.110Z,20.80
2023-01-07T20:59:29.246Z,20.10
2023-01-07T21:01:57.516Z,20.10
2023-01-07T21:04:29.021Z,20.60
2023-01-07T21:09:25.635Z,20.70
2023-01-07T21:11:55.111Z,20.10
2023-01-07T21:14:23.224Z,20.10
2023-01-07T21:16:51.402Z,20.10
2023-01-07T21:21:48.719Z,19.70
2023-01-07T21:24:17.556Z,20.20
2023-01-07T21:29:16.134Z,20.30
2023-01-07T21:34:13.629Z,20.10
2023-01-07T21:39:14.020Z,19.90
2023-01-07T21:44:13.182Z,19.80
2023-01-07T21:46:42.665Z,20.10
2023-01-07T21:49:10.939Z,20.00
2023-01-07T21:51:40.804Z,19.90
2023-01-07T21:56:37.417Z,19.80
2023-01-07T22:04:06.016Z,19.60
2023-01-07T22:06:35.864Z,19.60
2023-01-07T22:09:06.027Z,19.00
2023-01-07T22:14:03.521Z,19.50
2023-01-07T22:21:33.136Z,19.60
2023-01-07T22:29:02.602Z,19.50
2023-01-07T22:31:32.761Z,19.30
2023-01-07T22:36:37.087Z,19.70
2023-01-07T22:39:07.257Z,19.40
2023-01-07T22:41:38.735Z,19.50
2023-01-07T22:44:12.656Z,19.20
2023-01-07T22:46:42.539Z,19.60
2023-01-07T22:54:14.156Z,19.60
2023-01-07T23:01:40.181Z,19.30
2023-01-07T23:09:07.224Z,19.30
2023-01-07T23:14:21.581Z,19.00
2023-01-07T23:21:49.986Z,19.70
2023-01-07T23:24:20.287Z,19.60
2023-01-07T23:41:42.519Z,19.50
2023-01-07T23:59:03.288Z,19.30
